sensor_id;sensor_type;location;lat;lon;timestamp;P1;durP1;ratioP1;P2;durP2;ratioP2
43670;SDS011;29267;50.906;7.248;2023-11-19T00:00:33;0.80;;;0.80;;
43670;SDS011;29267;50.906;7.248;2023-11-19T00:02:58;1.25;;;0.90;;
43670;SDS011;29267;50.906;7.248;2023-11-19T00:05:24;0.70;;;0.70;;
43670;SDS011;29267;50.906;7.248;2023-11-19T00:07:50;0.57;;;0.57;;
43670;SDS011;29267;50.906;7.248;2023-11-19T00:10:16;3.53;;;0.90;;
43670;SDS011;29267;50.906;7.248;2023-11-19T00:12:46;1.77;;;1.00;;
43670;SDS011;29267;50.906;7.248;2023-11-19T00:15:13;2.25;;;1.25;;
43670;SDS011;29267;50.906;7.248;2023-11-19T00:17:40;8.45;;;4.78;;
43670;SDS011;29267;50.906;7.248;2023-11-19T00:20:09;8.27;;;3.28;;
43670;SDS011;29267;50.906;7.248;2023-11-19T00:22:39;6.15;;;2.17;;
43670;SDS011;29267;50.906;7.248;2023-11-19T00:25:05;4.50;;;1.77;;
43670;SDS011;29267;50.906;7.248;2023-11-19T00:27:31;2.85;;;2.38;;
43670;SDS011;29267;50.906;7.248;2023-11-19T00:29:57;2.50;;;1.98;;
43670;SDS011;29267;50.906;7.248;2023-11-19T00:32:23;7.20;;;5.80;;
43670;SDS011;29267;50.906;7.248;2023-11-19T00:34:49;8.07;;;6.00;;
43670;SDS011;29267;50.906;7.248;2023-11-19T00:37:15;8.88;;;6.43;;
43670;SDS011;29267;50.906;7.248;2023-11-19T00:39:41;18.63;;;11.82;;
43670;SDS011;29267;50.906;7.248;2023-11-19T00:44:44;7.53;;;5.13;;
43670;SDS011;29267;50.906;7.248;2023-11-19T00:47:11;8.32;;;4.28;;
43670;SDS011;29267;50.906;7.248;2023-11-19T00:49:36;8.18;;;4.45;;
43670;SDS011;29267;50.906;7.248;2023-11-19T00:52:02;2.70;;;1.77;;
43670;SDS011;29267;50.906;7.248;2023-11-19T00:54:28;7.00;;;3.75;;
43670;SDS011;29267;50.906;7.248;2023-11-19T00:56:54;13.55;;;7.00;;
43670;SDS011;29267;50.906;7.248;2023-11-19T00:59:20;16.30;;;5.38;;
43670;SDS011;29267;50.906;7.248;2023-11-19T01:01:46;3.38;;;1.10;;
43670;SDS011;29267;50.906;7.248;2023-11-19T01:04:16;1.20;;;1.00;;
43670;SDS011;29267;50.906;7.248;2023-11-19T01:06:42;3.55;;;1.27;;
43670;SDS011;29267;50.906;7.248;2023-11-19T01:09:07;3.75;;;1.45;;
43670;SDS011;29267;50.906;7.248;2023-11-19T01:11:34;4.57;;;2.63;;
43670;SDS011;29267;50.906;7.248;2023-11-19T01:14:00;1.10;;;0.80;;
43670;SDS011;29267;50.906;7.248;2023-11-19T01:16:26;5.30;;;1.33;;
43670;SDS011;29267;50.906;7.248;2023-11-19T01:18:52;0.63;;;0.60;;
43670;SDS011;29267;50.906;7.248;2023-11-19T01:21:17;0.47;;;0.40;;
43670;SDS011;29267;50.906;7.248;2023-11-19T01:23:44;2.72;;;0.57;;
43670;SDS011;29267;50.906;7.248;2023-11-19T01:26:10;1.00;;;0.85;;
43670;SDS011;29267;50.906;7.248;2023-11-19T01:28:37;3.97;;;0.43;;
43670;SDS011;29267;50.906;7.248;2023-11-19T01:31:12;1.38;;;0.77;;
43670;SDS011;29267;50.906;7.248;2023-11-19T01:33:41;0.50;;;0.40;;
43670;SDS011;29267;50.906;7.248;2023-11-19T01:36:07;0.75;;;0.70;;
43670;SDS011;29267;50.906;7.248;2023-11-19T01:38:33;0.60;;;0.52;;
43670;SDS011;29267;50.906;7.248;2023-11-19T01:41:00;2.67;;;0.80;;
43670;SDS011;29267;50.906;7.248;2023-11-19T01:43:37;0.50;;;0.50;;
43670;SDS011;29267;50.906;7.248;2023-11-19T01:46:06;1.02;;;0.80;;
43670;SDS011;29267;50.906;7.248;2023-11-19T01:48:35;0.70;;;0.70;;
43670;SDS011;29267;50.906;7.248;2023-11-19T01:51:06;0.60;;;0.60;;
43670;SDS011;29267;50.906;7.248;2023-11-19T01:53:33;2.58;;;0.73;;
43670;SDS011;29267;50.906;7.248;2023-11-19T01:56:01;0.52;;;0.47;;
43670;SDS011;29267;50.906;7.248;2023-11-19T01:58:28;0.32;;;0.32;;
43670;SDS011;29267;50.906;7.248;2023-11-19T02:00:55;0.40;;;0.40;;
43670;SDS011;29267;50.906;7.248;2023-11-19T02:03:22;1.15;;;0.60;;
43670;SDS011;29267;50.906;7.248;2023-11-19T02:05:50;3.42;;;0.60;;
43670;SDS011;29267;50.906;7.248;2023-11-19T02:08:18;0.90;;;0.50;;
43670;SDS011;29267;50.906;7.248;2023-11-19T02:10:45;0.73;;;0.60;;
43670;SDS011;29267;50.906;7.248;2023-11-19T02:13:11;2.58;;;0.68;;
43670;SDS011;29267;50.906;7.248;2023-11-19T02:15:38;1.48;;;0.70;;
43670;SDS011;29267;50.906;7.248;2023-11-19T02:18:22;0.55;;;0.55;;
43670;SDS011;29267;50.906;7.248;2023-11-19T02:20:49;0.73;;;0.73;;
43670;SDS011;29267;50.906;7.248;2023-11-19T02:23:15;0.90;;;0.85;;
43670;SDS011;29267;50.906;7.248;2023-11-19T02:25:42;0.65;;;0.43;;
43670;SDS011;29267;50.906;7.248;2023-11-19T02:28:12;1.23;;;0.63;;
43670;SDS011;29267;50.906;7.248;2023-11-19T02:30:38;0.60;;;0.50;;
43670;SDS011;29267;50.906;7.248;2023-11-19T02:33:04;0.88;;;0.88;;
43670;SDS011;29267;50.906;7.248;2023-11-19T02:35:33;0.80;;;0.80;;
43670;SDS011;29267;50.906;7.248;2023-11-19T02:37:59;4.22;;;1.02;;
43670;SDS011;29267;50.906;7.248;2023-11-19T02:40:26;1.70;;;1.30;;
43670;SDS011;29267;50.906;7.248;2023-11-19T02:42:52;0.85;;;0.68;;
43670;SDS011;29267;50.906;7.248;2023-11-19T02:45:20;1.65;;;0.90;;
43670;SDS011;29267;50.906;7.248;2023-11-19T02:47:50;0.80;;;0.80;;
43670;SDS011;29267;50.906;7.248;2023-11-19T02:50:17;4.55;;;0.70;;
43670;SDS011;29267;50.906;7.248;2023-11-19T02:55:16;1.10;;;0.73;;
43670;SDS011;29267;50.906;7.248;2023-11-19T02:57:43;0.60;;;0.60;;
43670;SDS011;29267;50.906;7.248;2023-11-19T03:00:20;1.02;;;0.85;;
43670;SDS011;29267;50.906;7.248;2023-11-19T03:02:57;1.65;;;1.00;;
43670;SDS011;29267;50.906;7.248;2023-11-19T03:05:42;0.65;;;0.60;;
43670;SDS011;29267;50.906;7.248;2023-11-19T03:08:09;0.65;;;0.65;;
43670;SDS011;29267;50.906;7.248;2023-11-19T03:10:35;3.78;;;0.90;;
43670;SDS011;29267;50.906;7.248;2023-11-19T03:13:01;1.30;;;0.65;;
43670;SDS011;29267;50.906;7.248;2023-11-19T03:15:27;0.90;;;0.85;;
43670;SDS011;29267;50.906;7.248;2023-11-19T03:17:53;2.13;;;0.77;;
43670;SDS011;29267;50.906;7.248;2023-11-19T03:20:19;1.10;;;0.73;;
43670;SDS011;29267;50.906;7.248;2023-11-19T03:22:46;0.95;;;0.70;;
43670;SDS011;29267;50.906;7.248;2023-11-19T03:25:11;2.65;;;0.65;;
43670;SDS011;29267;50.906;7.248;2023-11-19T03:27:38;0.90;;;0.65;;
43670;SDS011;29267;50.906;7.248;2023-11-19T03:30:10;5.13;;;1.48;;
43670;SDS011;29267;50.906;7.248;2023-11-19T03:32:36;2.58;;;0.80;;
43670;SDS011;29267;50.906;7.248;2023-11-19T03:35:03;2.58;;;0.70;;
43670;SDS011;29267;50.906;7.248;2023-11-19T03:37:32;1.25;;;0.70;;
43670;SDS011;29267;50.906;7.248;2023-11-19T03:39:58;4.05;;;0.88;;
43670;SDS011;29267;50.906;7.248;2023-11-19T03:42:28;0.90;;;0.80;;
43670;SDS011;29267;50.906;7.248;2023-11-19T03:44:57;1.38;;;0.77;;
43670;SDS011;29267;50.906;7.248;2023-11-19T03:47:23;1.00;;;0.60;;
43670;SDS011;29267;50.906;7.248;2023-11-19T03:49:49;0.88;;;0.60;;
43670;SDS011;29267;50.906;7.248;2023-11-19T03:52:16;3.35;;;0.70;;
43670;SDS011;29267;50.906;7.248;2023-11-19T03:54:42;1.42;;;0.70;;
43670;SDS011;29267;50.906;7.248;2023-11-19T03:57:08;0.70;;;0.70;;
43670;SDS011;29267;50.906;7.248;2023-11-19T03:59:37;1.88;;;0.60;;
43670;SDS011;29267;50.906;7.248;2023-11-19T04:02:03;4.53;;;0.80;;
43670;SDS011;29267;50.906;7.248;2023-11-19T04:04:29;4.35;;;0.88;;
43670;SDS011;29267;50.906;7.248;2023-11-19T04:06:55;4.88;;;1.13;;
43670;SDS011;29267;50.906;7.248;2023-11-19T04:09:21;3.47;;;1.25;;
43670;SDS011;29267;50.906;7.248;2023-11-19T04:11:47;6.65;;;1.42;;
43670;SDS011;29267;50.906;7.248;2023-11-19T04:14:13;8.07;;;1.30;;
43670;SDS011;29267;50.906;7.248;2023-11-19T04:16:40;8.35;;;1.52;;
43670;SDS011;29267;50.906;7.248;2023-11-19T04:19:06;11.65;;;1.88;;
43670;SDS011;29267;50.906;7.248;2023-11-19T04:21:32;9.50;;;1.45;;
43670;SDS011;29267;50.906;7.248;2023-11-19T04:23:58;8.93;;;1.52;;
43670;SDS011;29267;50.906;7.248;2023-11-19T04:26:24;6.30;;;1.70;;
43670;SDS011;29267;50.906;7.248;2023-11-19T04:28:50;10.60;;;2.10;;
43670;SDS011;29267;50.906;7.248;2023-11-19T04:31:15;10.95;;;1.58;;
43670;SDS011;29267;50.906;7.248;2023-11-19T04:33:41;8.07;;;2.05;;
43670;SDS011;29267;50.906;7.248;2023-11-19T04:36:08;5.75;;;1.50;;
43670;SDS011;29267;50.906;7.248;2023-11-19T04:38:35;20.63;;;2.38;;
43670;SDS011;29267;50.906;7.248;2023-11-19T04:41:01;7.22;;;2.03;;
43670;SDS011;29267;50.906;7.248;2023-11-19T04:43:27;13.63;;;1.90;;
43670;SDS011;29267;50.906;7.248;2023-11-19T04:45:53;8.57;;;2.35;;
43670;SDS011;29267;50.906;7.248;2023-11-19T04:48:18;7.88;;;1.75;;
43670;SDS011;29267;50.906;7.248;2023-11-19T04:50:44;15.15;;;3.42;;
43670;SDS011;29267;50.906;7.248;2023-11-19T04:53:10;16.85;;;2.72;;
43670;SDS011;29267;50.906;7.248;2023-11-19T04:55:37;15.48;;;2.08;;
43670;SDS011;29267;50.906;7.248;2023-11-19T04:58:02;21.92;;;2.47;;
43670;SDS011;29267;50.906;7.248;2023-11-19T05:00:28;31.63;;;4.28;;
43670;SDS011;29267;50.906;7.248;2023-11-19T05:02:55;16.50;;;2.75;;
43670;SDS011;29267;50.906;7.248;2023-11-19T05:05:20;16.05;;;2.60;;
43670;SDS011;29267;50.906;7.248;2023-11-19T05:07:46;11.52;;;2.30;;
43670;SDS011;29267;50.906;7.248;2023-11-19T05:10:12;11.05;;;2.25;;
43670;SDS011;29267;50.906;7.248;2023-11-19T05:12:38;11.40;;;2.80;;
43670;SDS011;29267;50.906;7.248;2023-11-19T05:15:04;16.33;;;2.67;;
43670;SDS011;29267;50.906;7.248;2023-11-19T05:17:30;12.75;;;2.38;;
43670;SDS011;29267;50.906;7.248;2023-11-19T05:19:56;15.10;;;2.28;;
43670;SDS011;29267;50.906;7.248;2023-11-19T05:22:22;11.48;;;2.42;;
43670;SDS011;29267;50.906;7.248;2023-11-19T05:24:48;12.13;;;1.88;;
43670;SDS011;29267;50.906;7.248;2023-11-19T05:27:14;12.63;;;3.10;;
43670;SDS011;29267;50.906;7.248;2023-11-19T05:29:40;12.25;;;2.10;;
43670;SDS011;29267;50.906;7.248;2023-11-19T05:32:06;20.88;;;3.40;;
43670;SDS011;29267;50.906;7.248;2023-11-19T05:34:32;14.82;;;2.33;;
43670;SDS011;29267;50.906;7.248;2023-11-19T05:36:58;9.48;;;2.28;;
43670;SDS011;29267;50.906;7.248;2023-11-19T05:39:24;16.30;;;2.33;;
43670;SDS011;29267;50.906;7.248;2023-11-19T05:41:50;15.63;;;3.85;;
43670;SDS011;29267;50.906;7.248;2023-11-19T05:44:17;11.80;;;2.30;;
43670;SDS011;29267;50.906;7.248;2023-11-19T05:46:44;19.20;;;3.25;;
43670;SDS011;29267;50.906;7.248;2023-11-19T05:49:10;14.63;;;4.07;;
43670;SDS011;29267;50.906;7.248;2023-11-19T05:51:39;18.05;;;3.00;;
43670;SDS011;29267;50.906;7.248;2023-11-19T05:54:09;8.32;;;2.13;;
43670;SDS011;29267;50.906;7.248;2023-11-19T05:56:36;18.17;;;3.28;;
43670;SDS011;29267;50.906;7.248;2023-11-19T05:59:02;22.40;;;3.63;;
43670;SDS011;29267;50.906;7.248;2023-11-19T06:01:39;7.80;;;3.50;;
43670;SDS011;29267;50.906;7.248;2023-11-19T06:04:06;14.57;;;2.10;;
43670;SDS011;29267;50.906;7.248;2023-11-19T06:06:32;29.35;;;3.30;;
43670;SDS011;29267;50.906;7.248;2023-11-19T06:08:58;22.73;;;3.85;;
43670;SDS011;29267;50.906;7.248;2023-11-19T06:11:24;12.02;;;2.75;;
43670;SDS011;29267;50.906;7.248;2023-11-19T06:13:52;16.10;;;3.28;;
43670;SDS011;29267;50.906;7.248;2023-11-19T06:16:18;16.95;;;2.58;;
43670;SDS011;29267;50.906;7.248;2023-11-19T06:18:44;14.30;;;2.95;;
43670;SDS011;29267;50.906;7.248;2023-11-19T06:21:10;14.43;;;2.65;;
43670;SDS011;29267;50.906;7.248;2023-11-19T06:23:36;21.70;;;4.20;;
43670;SDS011;29267;50.906;7.248;2023-11-19T06:26:02;14.63;;;3.67;;
43670;SDS011;29267;50.906;7.248;2023-11-19T06:28:30;18.52;;;3.70;;
43670;SDS011;29267;50.906;7.248;2023-11-19T06:30:56;25.63;;;3.70;;
43670;SDS011;29267;50.906;7.248;2023-11-19T06:33:23;24.63;;;2.58;;
43670;SDS011;29267;50.906;7.248;2023-11-19T06:35:49;18.73;;;2.88;;
43670;SDS011;29267;50.906;7.248;2023-11-19T06:38:15;21.02;;;3.65;;
43670;SDS011;29267;50.906;7.248;2023-11-19T06:40:41;12.43;;;3.95;;
43670;SDS011;29267;50.906;7.248;2023-11-19T06:43:07;19.52;;;4.18;;
43670;SDS011;29267;50.906;7.248;2023-11-19T06:45:35;20.05;;;3.25;;
43670;SDS011;29267;50.906;7.248;2023-11-19T06:48:04;16.13;;;2.75;;
43670;SDS011;29267;50.906;7.248;2023-11-19T06:50:30;24.95;;;3.25;;
43670;SDS011;29267;50.906;7.248;2023-11-19T06:52:57;24.60;;;3.20;;
43670;SDS011;29267;50.906;7.248;2023-11-19T06:55:23;14.50;;;2.63;;
43670;SDS011;29267;50.906;7.248;2023-11-19T06:57:49;15.15;;;3.22;;
43670;SDS011;29267;50.906;7.248;2023-11-19T07:00:14;19.95;;;4.13;;
43670;SDS011;29267;50.906;7.248;2023-11-19T07:02:40;22.35;;;4.18;;
43670;SDS011;29267;50.906;7.248;2023-11-19T07:05:07;17.83;;;3.47;;
43670;SDS011;29267;50.906;7.248;2023-11-19T07:07:33;13.50;;;2.78;;
43670;SDS011;29267;50.906;7.248;2023-11-19T07:10:00;19.20;;;3.88;;
43670;SDS011;29267;50.906;7.248;2023-11-19T07:12:27;31.00;;;3.70;;
43670;SDS011;29267;50.906;7.248;2023-11-19T07:14:52;19.67;;;3.03;;
43670;SDS011;29267;50.906;7.248;2023-11-19T07:17:20;26.35;;;4.00;;
43670;SDS011;29267;50.906;7.248;2023-11-19T07:19:46;22.17;;;3.78;;
43670;SDS011;29267;50.906;7.248;2023-11-19T07:22:12;17.15;;;3.45;;
43670;SDS011;29267;50.906;7.248;2023-11-19T07:24:39;15.85;;;4.50;;
43670;SDS011;29267;50.906;7.248;2023-11-19T07:27:06;22.83;;;3.85;;
43670;SDS011;29267;50.906;7.248;2023-11-19T07:29:34;19.38;;;4.20;;
43670;SDS011;29267;50.906;7.248;2023-11-19T07:32:01;25.58;;;5.18;;
43670;SDS011;29267;50.906;7.248;2023-11-19T07:34:30;19.33;;;3.58;;
43670;SDS011;29267;50.906;7.248;2023-11-19T07:36:55;20.80;;;5.25;;
43670;SDS011;29267;50.906;7.248;2023-11-19T07:39:27;23.00;;;4.63;;
43670;SDS011;29267;50.906;7.248;2023-11-19T07:41:53;21.48;;;5.75;;
43670;SDS011;29267;50.906;7.248;2023-11-19T07:44:19;17.63;;;4.07;;
43670;SDS011;29267;50.906;7.248;2023-11-19T07:46:46;17.55;;;3.25;;
43670;SDS011;29267;50.906;7.248;2023-11-19T07:49:13;19.85;;;5.43;;
43670;SDS011;29267;50.906;7.248;2023-11-19T07:51:39;18.67;;;4.35;;
43670;SDS011;29267;50.906;7.248;2023-11-19T07:54:05;20.65;;;4.07;;
43670;SDS011;29267;50.906;7.248;2023-11-19T07:56:34;21.33;;;3.75;;
43670;SDS011;29267;50.906;7.248;2023-11-19T07:59:03;22.60;;;4.75;;
43670;SDS011;29267;50.906;7.248;2023-11-19T08:01:29;22.48;;;4.03;;
43670;SDS011;29267;50.906;7.248;2023-11-19T08:03:54;23.27;;;4.68;;
43670;SDS011;29267;50.906;7.248;2023-11-19T08:06:20;23.42;;;5.10;;
43670;SDS011;29267;50.906;7.248;2023-11-19T08:08:46;32.65;;;7.50;;
43670;SDS011;29267;50.906;7.248;2023-11-19T08:11:13;18.85;;;4.13;;
43670;SDS011;29267;50.906;7.248;2023-11-19T08:13:40;19.55;;;4.78;;
43670;SDS011;29267;50.906;7.248;2023-11-19T08:16:05;26.10;;;3.42;;
43670;SDS011;29267;50.906;7.248;2023-11-19T08:18:31;14.18;;;3.13;;
43670;SDS011;29267;50.906;7.248;2023-11-19T08:20:57;22.83;;;4.43;;
43670;SDS011;29267;50.906;7.248;2023-11-19T08:23:24;18.00;;;4.55;;
43670;SDS011;29267;50.906;7.248;2023-11-19T08:25:51;21.00;;;5.20;;
43670;SDS011;29267;50.906;7.248;2023-11-19T08:28:17;20.27;;;4.15;;
43670;SDS011;29267;50.906;7.248;2023-11-19T08:30:43;26.75;;;4.15;;
43670;SDS011;29267;50.906;7.248;2023-11-19T08:33:09;21.35;;;3.47;;
43670;SDS011;29267;50.906;7.248;2023-11-19T08:35:35;17.60;;;2.95;;
43670;SDS011;29267;50.906;7.248;2023-11-19T08:38:01;13.07;;;3.90;;
43670;SDS011;29267;50.906;7.248;2023-11-19T08:40:27;18.27;;;4.15;;
43670;SDS011;29267;50.906;7.248;2023-11-19T08:42:53;20.75;;;3.35;;
43670;SDS011;29267;50.906;7.248;2023-11-19T08:45:19;11.20;;;3.53;;
43670;SDS011;29267;50.906;7.248;2023-11-19T08:47:44;15.50;;;3.70;;
43670;SDS011;29267;50.906;7.248;2023-11-19T08:50:11;16.55;;;4.82;;
43670;SDS011;29267;50.906;7.248;2023-11-19T08:52:37;16.77;;;3.08;;
43670;SDS011;29267;50.906;7.248;2023-11-19T08:55:03;14.82;;;3.72;;
43670;SDS011;29267;50.906;7.248;2023-11-19T08:57:30;20.67;;;4.20;;
43670;SDS011;29267;50.906;7.248;2023-11-19T08:59:57;19.77;;;3.88;;
43670;SDS011;29267;50.906;7.248;2023-11-19T09:02:23;18.52;;;4.10;;
43670;SDS011;29267;50.906;7.248;2023-11-19T09:04:49;22.67;;;3.88;;
43670;SDS011;29267;50.906;7.248;2023-11-19T09:07:16;22.58;;;4.18;;
43670;SDS011;29267;50.906;7.248;2023-11-19T09:09:42;21.90;;;4.68;;
43670;SDS011;29267;50.906;7.248;2023-11-19T09:12:07;14.30;;;2.78;;
43670;SDS011;29267;50.906;7.248;2023-11-19T09:14:33;19.00;;;3.63;;
43670;SDS011;29267;50.906;7.248;2023-11-19T09:16:59;19.02;;;2.80;;
43670;SDS011;29267;50.906;7.248;2023-11-19T09:19:25;28.13;;;4.60;;
43670;SDS011;29267;50.906;7.248;2023-11-19T09:21:54;27.63;;;4.68;;
43670;SDS011;29267;50.906;7.248;2023-11-19T09:24:19;18.50;;;3.72;;
43670;SDS011;29267;50.906;7.248;2023-11-19T09:26:45;22.25;;;4.00;;
43670;SDS011;29267;50.906;7.248;2023-11-19T09:29:11;16.30;;;3.42;;
43670;SDS011;29267;50.906;7.248;2023-11-19T09:31:39;16.13;;;3.03;;
43670;SDS011;29267;50.906;7.248;2023-11-19T09:34:05;21.83;;;3.85;;
43670;SDS011;29267;50.906;7.248;2023-11-19T09:36:31;15.40;;;3.78;;
43670;SDS011;29267;50.906;7.248;2023-11-19T09:38:56;22.75;;;3.78;;
43670;SDS011;29267;50.906;7.248;2023-11-19T09:41:23;22.17;;;3.70;;
43670;SDS011;29267;50.906;7.248;2023-11-19T09:43:49;15.98;;;2.88;;
43670;SDS011;29267;50.906;7.248;2023-11-19T09:46:16;16.73;;;2.88;;
43670;SDS011;29267;50.906;7.248;2023-11-19T09:48:42;19.23;;;4.07;;
43670;SDS011;29267;50.906;7.248;2023-11-19T09:51:10;22.98;;;3.65;;
43670;SDS011;29267;50.906;7.248;2023-11-19T09:53:36;27.35;;;4.32;;
43670;SDS011;29267;50.906;7.248;2023-11-19T09:56:03;19.63;;;3.53;;
43670;SDS011;29267;50.906;7.248;2023-11-19T09:58:30;23.58;;;3.72;;
43670;SDS011;29267;50.906;7.248;2023-11-19T10:00:59;15.98;;;4.10;;
43670;SDS011;29267;50.906;7.248;2023-11-19T10:03:31;24.60;;;6.65;;
43670;SDS011;29267;50.906;7.248;2023-11-19T10:06:08;21.98;;;4.03;;
43670;SDS011;29267;50.906;7.248;2023-11-19T10:08:38;28.90;;;6.03;;
43670;SDS011;29267;50.906;7.248;2023-11-19T10:11:05;24.63;;;5.05;;
43670;SDS011;29267;50.906;7.248;2023-11-19T10:13:32;17.95;;;3.78;;
43670;SDS011;29267;50.906;7.248;2023-11-19T10:16:09;24.20;;;2.92;;
43670;SDS011;29267;50.906;7.248;2023-11-19T10:18:38;14.70;;;3.38;;
43670;SDS011;29267;50.906;7.248;2023-11-19T10:21:12;23.02;;;4.55;;
43670;SDS011;29267;50.906;7.248;2023-11-19T10:26:17;19.08;;;3.92;;
43670;SDS011;29267;50.906;7.248;2023-11-19T10:28:45;25.88;;;3.50;;
43670;SDS011;29267;50.906;7.248;2023-11-19T10:31:14;18.48;;;3.42;;
43670;SDS011;29267;50.906;7.248;2023-11-19T10:33:42;18.75;;;5.07;;
43670;SDS011;29267;50.906;7.248;2023-11-19T10:36:10;25.90;;;3.53;;
43670;SDS011;29267;50.906;7.248;2023-11-19T10:38:40;23.15;;;3.00;;
43670;SDS011;29267;50.906;7.248;2023-11-19T10:41:06;20.55;;;3.35;;
43670;SDS011;29267;50.906;7.248;2023-11-19T10:43:42;22.35;;;4.03;;
43670;SDS011;29267;50.906;7.248;2023-11-19T10:46:10;22.60;;;4.10;;
43670;SDS011;29267;50.906;7.248;2023-11-19T10:48:37;21.45;;;2.95;;
43670;SDS011;29267;50.906;7.248;2023-11-19T10:51:05;16.58;;;3.03;;
43670;SDS011;29267;50.906;7.248;2023-11-19T10:53:36;18.40;;;2.92;;
43670;SDS011;29267;50.906;7.248;2023-11-19T10:56:04;19.23;;;3.50;;
43670;SDS011;29267;50.906;7.248;2023-11-19T10:58:35;16.13;;;2.72;;
43670;SDS011;29267;50.906;7.248;2023-11-19T11:01:07;26.88;;;3.58;;
43670;SDS011;29267;50.906;7.248;2023-11-19T11:03:39;26.92;;;2.85;;
43670;SDS011;29267;50.906;7.248;2023-11-19T11:06:05;26.08;;;2.97;;
43670;SDS011;29267;50.906;7.248;2023-11-19T11:08:31;20.38;;;2.63;;
43670;SDS011;29267;50.906;7.248;2023-11-19T11:11:01;19.95;;;3.08;;
43670;SDS011;29267;50.906;7.248;2023-11-19T11:13:29;10.85;;;3.08;;
43670;SDS011;29267;50.906;7.248;2023-11-19T11:15:57;11.77;;;2.85;;
43670;SDS011;29267;50.906;7.248;2023-11-19T11:18:23;19.27;;;3.80;;
43670;SDS011;29267;50.906;7.248;2023-11-19T11:21:00;13.07;;;3.05;;
43670;SDS011;29267;50.906;7.248;2023-11-19T11:26:18;21.13;;;2.60;;
43670;SDS011;29267;50.906;7.248;2023-11-19T11:29:09;21.73;;;3.65;;
43670;SDS011;29267;50.906;7.248;2023-11-19T11:39:39;26.48;;;4.35;;
43670;SDS011;29267;50.906;7.248;2023-11-19T11:50:09;17.92;;;2.53;;
43670;SDS011;29267;50.906;7.248;2023-11-19T11:55:29;19.20;;;3.55;;
43670;SDS011;29267;50.906;7.248;2023-11-19T11:58:29;29.15;;;5.65;;
43670;SDS011;29267;50.906;7.248;2023-11-19T12:00:57;18.15;;;3.85;;
43670;SDS011;29267;50.906;7.248;2023-11-19T12:03:26;22.42;;;3.15;;
43670;SDS011;29267;50.906;7.248;2023-11-19T12:05:53;16.42;;;4.03;;
43670;SDS011;29267;50.906;7.248;2023-11-19T12:08:20;11.70;;;2.72;;
43670;SDS011;29267;50.906;7.248;2023-11-19T12:10:51;16.15;;;4.57;;
43670;SDS011;29267;50.906;7.248;2023-11-19T12:13:29;19.15;;;4.38;;
43670;SDS011;29267;50.906;7.248;2023-11-19T12:16:14;15.40;;;3.15;;
43670;SDS011;29267;50.906;7.248;2023-11-19T12:18:39;17.25;;;3.47;;
43670;SDS011;29267;50.906;7.248;2023-11-19T12:21:06;12.77;;;3.13;;
43670;SDS011;29267;50.906;7.248;2023-11-19T12:23:34;17.73;;;3.25;;
43670;SDS011;29267;50.906;7.248;2023-11-19T12:26:01;18.63;;;3.58;;
43670;SDS011;29267;50.906;7.248;2023-11-19T12:28:26;14.57;;;3.30;;
43670;SDS011;29267;50.906;7.248;2023-11-19T12:31:07;14.98;;;2.70;;
43670;SDS011;29267;50.906;7.248;2023-11-19T12:33:36;14.90;;;3.25;;
43670;SDS011;29267;50.906;7.248;2023-11-19T12:36:03;19.63;;;6.20;;
43670;SDS011;29267;50.906;7.248;2023-11-19T12:38:30;20.98;;;4.28;;
43670;SDS011;29267;50.906;7.248;2023-11-19T12:41:06;12.10;;;3.20;;
43670;SDS011;29267;50.906;7.248;2023-11-19T12:43:33;16.90;;;4.93;;
43670;SDS011;29267;50.906;7.248;2023-11-19T12:46:02;18.90;;;6.28;;
43670;SDS011;29267;50.906;7.248;2023-11-19T12:48:41;20.65;;;6.63;;
43670;SDS011;29267;50.906;7.248;2023-11-19T12:51:07;18.45;;;6.45;;
43670;SDS011;29267;50.906;7.248;2023-11-19T12:53:46;21.00;;;5.07;;
43670;SDS011;29267;50.906;7.248;2023-11-19T12:56:17;27.80;;;7.28;;
43670;SDS011;29267;50.906;7.248;2023-11-19T12:58:43;16.15;;;4.57;;
43670;SDS011;29267;50.906;7.248;2023-11-19T13:01:09;24.05;;;5.85;;
43670;SDS011;29267;50.906;7.248;2023-11-19T13:03:38;21.65;;;5.32;;
43670;SDS011;29267;50.906;7.248;2023-11-19T13:06:08;18.77;;;3.40;;
43670;SDS011;29267;50.906;7.248;2023-11-19T13:08:40;26.45;;;6.57;;
43670;SDS011;29267;50.906;7.248;2023-11-19T13:11:09;19.73;;;6.35;;
43670;SDS011;29267;50.906;7.248;2023-11-19T13:13:55;15.00;;;2.88;;
43670;SDS011;29267;50.906;7.248;2023-11-19T13:16:26;16.60;;;5.25;;
43670;SDS011;29267;50.906;7.248;2023-11-19T13:18:53;14.60;;;3.80;;
43670;SDS011;29267;50.906;7.248;2023-11-19T13:21:19;12.88;;;3.65;;
43670;SDS011;29267;50.906;7.248;2023-11-19T13:23:44;17.17;;;3.28;;
43670;SDS011;29267;50.906;7.248;2023-11-19T13:26:10;15.38;;;3.13;;
43670;SDS011;29267;50.906;7.248;2023-11-19T13:28:37;16.17;;;3.40;;
43670;SDS011;29267;50.906;7.248;2023-11-19T13:31:03;9.10;;;2.72;;
43670;SDS011;29267;50.906;7.248;2023-11-19T13:33:29;14.10;;;3.28;;
43670;SDS011;29267;50.906;7.248;2023-11-19T13:35:55;13.38;;;3.65;;
43670;SDS011;29267;50.906;7.248;2023-11-19T13:38:21;11.07;;;3.17;;
43670;SDS011;29267;50.906;7.248;2023-11-19T13:40:49;15.65;;;4.28;;
43670;SDS011;29267;50.906;7.248;2023-11-19T13:43:15;19.20;;;2.65;;
43670;SDS011;29267;50.906;7.248;2023-11-19T13:45:40;9.18;;;3.95;;
43670;SDS011;29267;50.906;7.248;2023-11-19T13:48:06;17.13;;;2.97;;
43670;SDS011;29267;50.906;7.248;2023-11-19T13:50:32;19.13;;;2.72;;
43670;SDS011;29267;50.906;7.248;2023-11-19T13:52:59;6.88;;;2.85;;
43670;SDS011;29267;50.906;7.248;2023-11-19T13:55:25;20.27;;;3.38;;
43670;SDS011;29267;50.906;7.248;2023-11-19T13:57:51;12.25;;;2.45;;
43670;SDS011;29267;50.906;7.248;2023-11-19T14:00:17;11.48;;;2.13;;
43670;SDS011;29267;50.906;7.248;2023-11-19T14:02:44;15.68;;;4.50;;
43670;SDS011;29267;50.906;7.248;2023-11-19T14:05:14;15.10;;;5.68;;
43670;SDS011;29267;50.906;7.248;2023-11-19T14:07:42;14.48;;;2.97;;
43670;SDS011;29267;50.906;7.248;2023-11-19T14:10:09;13.80;;;2.60;;
43670;SDS011;29267;50.906;7.248;2023-11-19T14:12:36;18.25;;;4.20;;
43670;SDS011;29267;50.906;7.248;2023-11-19T14:15:03;13.80;;;2.00;;
43670;SDS011;29267;50.906;7.248;2023-11-19T14:17:31;11.40;;;2.42;;
43670;SDS011;29267;50.906;7.248;2023-11-19T14:19:57;23.92;;;3.85;;
43670;SDS011;29267;50.906;7.248;2023-11-19T14:22:23;21.20;;;4.18;;
43670;SDS011;29267;50.906;7.248;2023-11-19T14:27:19;16.45;;;3.08;;
43670;SDS011;29267;50.906;7.248;2023-11-19T14:29:46;15.40;;;3.53;;
43670;SDS011;29267;50.906;7.248;2023-11-19T14:32:12;9.57;;;2.22;;
43670;SDS011;29267;50.906;7.248;2023-11-19T14:34:38;13.40;;;2.67;;
43670;SDS011;29267;50.906;7.248;2023-11-19T14:37:03;17.58;;;4.05;;
43670;SDS011;29267;50.906;7.248;2023-11-19T14:39:29;18.98;;;4.15;;
43670;SDS011;29267;50.906;7.248;2023-11-19T14:41:56;19.70;;;4.00;;
43670;SDS011;29267;50.906;7.248;2023-11-19T14:44:30;12.90;;;3.38;;
43670;SDS011;29267;50.906;7.248;2023-11-19T14:46:56;13.77;;;3.58;;
43670;SDS011;29267;50.906;7.248;2023-11-19T14:49:22;17.00;;;3.33;;
43670;SDS011;29267;50.906;7.248;2023-11-19T14:51:49;17.70;;;3.00;;
43670;SDS011;29267;50.906;7.248;2023-11-19T14:54:15;21.45;;;3.70;;
43670;SDS011;29267;50.906;7.248;2023-11-19T14:56:41;13.38;;;3.15;;
43670;SDS011;29267;50.906;7.248;2023-11-19T14:59:07;12.88;;;2.80;;
43670;SDS011;29267;50.906;7.248;2023-11-19T15:01:33;13.02;;;2.28;;
43670;SDS011;29267;50.906;7.248;2023-11-19T15:03:59;11.90;;;2.80;;
43670;SDS011;29267;50.906;7.248;2023-11-19T15:06:25;12.48;;;2.65;;
43670;SDS011;29267;50.906;7.248;2023-11-19T15:08:52;17.25;;;2.70;;
43670;SDS011;29267;50.906;7.248;2023-11-19T15:11:18;19.65;;;2.72;;